Time;durP1;ratioP1;P1;durP2;ratioP2;P2;SDS_P1;SDS_P2;PMS_P1;PMS_P2;Temp;Humidity;BMP_temperature;BMP_pressure;BME280_temperature;BME280_humidity;BME280_pressure;Samples;Min_cycle;Max_cycle;Signal;HPM_P1;HPM_P2
2022/10/13 00:01:23;;;;;;;31.30;15.13;;;9.60;95.90;;;;;;5049306;28;20048;-68
2022/10/13 00:03:50;;;;;;;26.88;14.65;;;9.60;95.90;;;;;;5041526;28;20473;-69
2022/10/13 00:06:18;;;;;;;25.02;14.05;;;9.60;95.70;;;;;;5046902;28;20037;-69
2022/10/13 00:08:44;;;;;;;25.98;14.35;;;9.60;95.80;;;;;;5060132;28;20043;-68
2022/10/13 00:11:10;;;;;;;29.42;14.57;;;9.60;95.90;;;;;;5043332;28;20044;-69
2022/10/13 00:13:36;;;;;;;22.98;13.30;;;9.60;95.90;;;;;;5041103;28;20048;-68
2022/10/13 00:16:03;;;;;;;27.73;14.48;;;9.60;96.40;;;;;;5060049;28;20051;-68
2022/10/13 00:18:29;;;;;;;26.73;13.55;;;9.60;96.10;;;;;;5077217;28;20047;-68
2022/10/13 00:20:54;;;;;;;27.70;14.33;;;9.60;96.20;;;;;;5067179;28;20491;-68
2022/10/13 00:23:20;;;;;;;23.97;14.30;;;9.70;96.10;;;;;;5070076;28;20131;-68
2022/10/13 00:25:48;;;;;;;26.25;14.85;;;9.70;96.10;;;;;;5047994;28;20052;-68
2022/10/13 00:28:16;;;;;;;24.00;14.68;;;9.70;96.30;;;;;;5046296;28;20039;-68
2022/10/13 00:30:42;;;;;;;29.65;14.50;;;9.70;96.10;;;;;;5030775;28;20123;-69
2022/10/13 00:33:10;;;;;;;31.50;15.70;;;9.70;96.20;;;;;;5050586;28;20072;-69
2022/10/13 00:35:44;;;;;;;25.30;13.82;;;9.70;96.20;;;;;;5054897;28;20101;-69
2022/10/13 00:38:10;;;;;;;23.88;13.75;;;9.70;96.10;;;;;;5059463;28;20074;-68
2022/10/13 00:40:48;;;;;;;27.15;14.65;;;9.70;96.20;;;;;;5056451;28;20044;-68
2022/10/13 00:43:20;;;;;;;25.38;13.80;;;9.70;96.50;;;;;;5041478;28;20040;-68
2022/10/13 00:45:49;;;;;;;30.00;13.68;;;9.70;96.60;;;;;;5054923;28;20049;-68
2022/10/13 00:48:19;;;;;;;25.63;14.23;;;9.70;96.40;;;;;;5042022;28;20482;-69
2022/10/13 00:50:46;;;;;;;24.90;13.63;;;9.70;96.70;;;;;;5061288;28;20460;-68
2022/10/13 00:53:13;;;;;;;26.23;14.15;;;9.70;96.70;;;;;;5069977;28;20040;-68
2022/10/13 00:55:42;;;;;;;26.33;13.85;;;9.70;96.80;;;;;;5037304;28;20535;-68
2022/10/13 00:58:11;;;;;;;27.65;13.32;;;9.70;97.00;;;;;;5070187;28;20472;-68
2022/10/13 01:00:37;;;;;;;20.65;13.65;;;9.70;96.70;;;;;;5066961;28;20048;-68
2022/10/13 01:03:02;;;;;;;24.58;13.57;;;9.70;96.90;;;;;;5056219;28;20755;-69
2022/10/13 01:05:29;;;;;;;24.50;13.37;;;9.60;97.00;;;;;;5055861;28;20119;-68
2022/10/13 01:07:56;;;;;;;26.23;13.88;;;9.60;97.20;;;;;;5070640;28;20404;-69
2022/10/13 01:11:18;;;;;;;25.15;13.75;;;9.60;97.30;;;;;;5056577;28;20047;-68
2022/10/13 01:14:01;;;;;;;24.67;14.02;;;9.60;97.20;;;;;;4969786;28;20077;-69
2022/10/13 01:16:48;;;;;;;26.48;14.57;;;9.60;97.40;;;;;;5047458;28;20478;-68
2022/10/13 01:19:45;;;;;;;22.97;13.20;;;9.60;97.50;;;;;;5057915;28;20056;-69
2022/10/13 01:22:32;;;;;;;29.25;14.55;;;9.60;97.40;;;;;;5047186;28;20290;-68
2022/10/13 01:25:17;;;;;;;26.85;13.02;;;9.60;97.40;;;;;;5064332;28;20056;-68
2022/10/13 01:27:48;;;;;;;26.70;13.65;;;9.60;97.30;;;;;;5040263;28;20155;-68
2022/10/13 01:30:17;;;;;;;23.55;13.60;;;9.60;97.40;;;;;;5066260;28;20048;-68
2022/10/13 01:33:00;;;;;;;21.65;12.80;;;9.60;97.20;;;;;;5059710;28;20037;-68
2022/10/13 01:35:31;;;;;;;22.73;13.68;;;9.70;97.30;;;;;;5056949;28;20036;-69
2022/10/13 01:38:11;;;;;;;23.42;14.50;;;9.70;97.40;;;;;;5069583;28;20048;-69
2022/10/13 01:40:50;;;;;;;23.02;12.63;;;9.70;97.70;;;;;;5061135;28;20041;-69
2022/10/13 01:43:21;;;;;;;24.23;13.48;;;9.70;97.70;;;;;;5060946;28;20143;-69
2022/10/13 01:45:56;;;;;;;19.80;12.70;;;9.70;97.70;;;;;;5067466;28;20047;-68
2022/10/13 01:48:24;;;;;;;29.65;12.82;;;9.70;97.50;;;;;;5069212;28;20043;-68
2022/10/13 01:50:51;;;;;;;21.67;12.10;;;9.70;97.30;;;;;;5041677;28;20488;-68
2022/10/13 01:53:19;;;;;;;25.98;12.50;;;9.70;97.40;;;;;;5069037;28;20101;-68
2022/10/13 01:56:03;;;;;;;21.42;12.68;;;9.70;97.20;;;;;;5065664;28;20040;-68
2022/10/13 01:58:33;;;;;;;20.80;12.60;;;9.80;97.10;;;;;;5049938;28;20131;-68
2022/10/13 02:01:07;;;;;;;20.60;11.70;;;9.80;97.00;;;;;;5067365;28;20036;-68
2022/10/13 02:03:45;;;;;;;18.90;12.25;;;9.80;97.00;;;;;;5049023;28;20053;-69
2022/10/13 02:06:29;;;;;;;24.20;13.52;;;9.80;96.90;;;;;;5033528;28;20464;-69
2022/10/13 02:09:11;;;;;;;26.65;13.48;;;9.80;97.00;;;;;;5066452;28;20110;-68
2022/10/13 02:11:40;;;;;;;21.90;12.68;;;9.80;97.10;;;;;;5065167;28;20399;-68
2022/10/13 02:14:14;;;;;;;21.48;12.63;;;9.80;97.10;;;;;;5069030;28;20040;-68
2022/10/13 02:16:43;;;;;;;21.95;11.50;;;9.80;97.10;;;;;;5052737;28;20048;-68
2022/10/13 02:19:13;;;;;;;24.98;12.90;;;9.80;97.10;;;;;;5068817;28;20051;-69
2022/10/13 02:21:40;;;;;;;24.00;12.35;;;9.90;96.90;;;;;;5055752;28;20049;-68
2022/10/13 02:24:07;;;;;;;24.67;12.75;;;9.90;97.30;;;;;;5061007;28;20069;-69
2022/10/13 02:26:34;;;;;;;23.20;12.35;;;9.90;97.10;;;;;;5045651;28;20041;-69
2022/10/13 02:29:11;;;;;;;22.42;12.95;;;9.90;97.20;;;;;;5052722;28;20408;-69
2022/10/13 02:31:38;;;;;;;22.63;13.27;;;9.90;97.40;;;;;;5059584;28;20041;-69
2022/10/13 02:34:04;;;;;;;25.80;13.82;;;9.90;97.00;;;;;;5045548;28;20052;-69
2022/10/13 02:36:30;;;;;;;22.58;12.98;;;9.90;97.40;;;;;;5030636;28;20044;-69
2022/10/13 02:38:56;;;;;;;24.58;13.32;;;9.90;97.30;;;;;;5065258;28;20051;-69
2022/10/13 02:41:22;;;;;;;25.73;13.60;;;10.00;97.60;;;;;;5060434;28;20048;-69
2022/10/13 02:43:47;;;;;;;25.53;14.37;;;10.00;97.40;;;;;;5057676;28;20063;-68
2022/10/13 02:46:13;;;;;;;27.03;13.87;;;10.00;97.60;;;;;;5030239;28;20055;-68
2022/10/13 02:48:39;;;;;;;26.47;14.37;;;10.00;97.70;;;;;;5064759;28;20483;-68
2022/10/13 02:51:05;;;;;;;23.08;14.13;;;10.00;98.10;;;;;;5048504;28;20091;-68
2022/10/13 02:53:31;;;;;;;25.27;12.97;;;9.90;98.10;;;;;;5059248;28;20088;-68
2022/10/13 02:55:56;;;;;;;23.33;15.50;;;10.00;98.50;;;;;;5051657;28;20904;-68
2022/10/13 02:58:22;;;;;;;24.73;13.90;;;10.00;98.80;;;;;;5056714;28;20540;-68
2022/10/13 03:00:48;;;;;;;23.47;14.30;;;10.00;98.90;;;;;;5048176;28;20119;-68
2022/10/13 03:03:13;;;;;;;23.67;15.00;;;10.00;98.70;;;;;;5059421;28;20393;-68
2022/10/13 03:05:39;;;;;;;22.47;13.63;;;10.00;99.10;;;;;;5059781;28;20040;-68
2022/10/13 03:08:05;;;;;;;30.93;14.93;;;10.00;99.00;;;;;;5040530;28;20036;-68
2022/10/13 03:10:31;;;;;;;26.70;14.07;;;10.00;99.40;;;;;;5046893;28;20497;-69
2022/10/13 03:12:57;;;;;;;23.83;14.67;;;10.00;99.40;;;;;;5056343;28;20151;-69
2022/10/13 03:15:23;;;;;;;24.40;15.43;;;10.10;99.50;;;;;;5058133;28;20101;-69
2022/10/13 03:17:49;;;;;;;26.40;14.80;;;10.10;99.70;;;;;;5052972;28;20809;-68
2022/10/13 03:20:15;;;;;;;20.73;14.33;;;10.10;99.90;;;;;;5057173;28;20047;-69
2022/10/13 03:22:41;;;;;;;23.83;14.32;;;10.10;99.90;;;;;;5065297;28;20538;-69
2022/10/13 03:25:07;;;;;;;25.70;15.33;;;10.10;99.90;;;;;;5069520;28;20059;-69
2022/10/13 03:27:33;;;;;;;24.63;15.40;;;10.10;99.90;;;;;;5044722;28;20128;-69
2022/10/13 03:29:59;;;;;;;30.57;14.70;;;10.10;99.90;;;;;;5059951;28;20124;-69
2022/10/13 03:32:24;;;;;;;29.93;14.97;;;10.10;99.90;;;;;;5050445;28;20037;-69
2022/10/13 03:34:51;;;;;;;29.33;15.40;;;10.10;99.90;;;;;;5058954;28;20040;-69
2022/10/13 03:37:16;;;;;;;25.42;14.98;;;10.10;99.90;;;;;;5064220;28;20040;-69
2022/10/13 03:39:42;;;;;;;26.17;14.80;;;10.10;99.90;;;;;;5062394;28;20188;-69
2022/10/13 03:42:09;;;;;;;30.40;15.90;;;10.20;99.90;;;;;;5031832;28;20515;-69
2022/10/13 03:44:34;;;;;;;25.03;15.33;;;10.10;99.90;;;;;;5055443;28;20037;-69
2022/10/13 03:47:00;;;;;;;26.63;16.13;;;10.10;99.90;;;;;;5047472;28;20290;-69
2022/10/13 03:49:26;;;;;;;29.90;14.17;;;10.10;99.90;;;;;;5060172;28;20080;-69
2022/10/13 03:51:51;;;;;;;25.77;15.13;;;10.10;99.90;;;;;;5063478;28;20040;-69
2022/10/13 03:54:17;;;;;;;26.87;15.40;;;10.10;99.90;;;;;;5037155;28;20428;-69
2022/10/13 03:56:43;;;;;;;25.27;15.77;;;10.10;99.90;;;;;;5044309;28;20478;-69
2022/10/13 03:59:12;;;;;;;28.57;16.83;;;10.10;99.90;;;;;;5044828;28;20052;-69
2022/10/13 04:01:38;;;;;;;25.77;16.05;;;10.10;99.90;;;;;;5047554;28;20036;-69
2022/10/13 04:04:04;;;;;;;27.40;15.63;;;10.00;99.90;;;;;;5012871;28;20116;-69
2022/10/13 04:06:33;;;;;;;25.97;15.87;;;10.00;99.90;;;;;;5063929;28;20471;-69
2022/10/13 04:08:58;;;;;;;28.48;16.17;;;10.00;99.90;;;;;;5052565;28;20287;-69
2022/10/13 04:11:24;;;;;;;29.03;16.73;;;10.00;99.90;;;;;;5040830;28;20036;-69
2022/10/13 04:13:50;;;;;;;26.20;15.87;;;10.00;99.90;;;;;;5058957;28;21304;-69
2022/10/13 04:16:17;;;;;;;27.58;16.70;;;10.00;99.90;;;;;;5054863;28;20055;-69
2022/10/13 04:18:44;;;;;;;26.88;16.45;;;10.00;99.90;;;;;;5039275;28;20048;-70
2022/10/13 04:21:13;;;;;;;25.88;16.13;;;10.00;99.90;;;;;;5053894;28;20045;-70
2022/10/13 04:23:39;;;;;;;27.70;16.88;;;10.00;99.90;;;;;;5060143;28;20064;-70
2022/10/13 04:26:05;;;;;;;27.17;16.23;;;10.00;99.90;;;;;;5020671;28;20098;-69
2022/10/13 04:28:34;;;;;;;30.35;17.02;;;9.90;99.90;;;;;;5045877;28;20400;-69
2022/10/13 04:31:01;;;;;;;29.25;17.15;;;9.90;99.90;;;;;;5052463;28;20045;-69
2022/10/13 04:33:28;;;;;;;31.95;16.95;;;9.90;99.90;;;;;;5050921;28;20416;-70
2022/10/13 04:35:54;;;;;;;27.70;16.00;;;9.90;99.90;;;;;;5053469;28;20049;-69
2022/10/13 04:38:20;;;;;;;30.05;17.13;;;9.90;99.90;;;;;;5036461;28;20045;-69
2022/10/13 04:40:46;;;;;;;30.90;16.97;;;9.90;99.90;;;;;;5043963;28;20048;-69
2022/10/13 04:43:11;;;;;;;28.33;17.23;;;9.90;99.90;;;;;;5040096;28;20087;-69
2022/10/13 04:45:37;;;;;;;28.87;17.07;;;10.00;99.90;;;;;;5076599;28;20408;-70
2022/10/13 04:48:03;;;;;;;27.03;17.53;;;9.90;99.90;;;;;;5040057;28;20041;-70
2022/10/13 04:50:29;;;;;;;27.83;16.50;;;10.00;99.90;;;;;;5043340;28;20037;-70
2022/10/13 04:52:54;;;;;;;33.57;17.90;;;10.00;99.90;;;;;;5055414;28;20582;-70
2022/10/13 04:55:20;;;;;;;31.67;17.47;;;10.00;99.90;;;;;;5043241;28;20119;-70
2022/10/13 04:57:46;;;;;;;30.93;18.30;;;10.00;99.90;;;;;;5055366;28;20376;-70
2022/10/13 05:00:12;;;;;;;29.90;18.10;;;10.00;99.90;;;;;;5044420;28;20040;-69
2022/10/13 05:02:38;;;;;;;31.80;18.48;;;10.00;99.90;;;;;;5039979;28;20398;-70
2022/10/13 05:05:04;;;;;;;31.13;16.93;;;10.00;99.90;;;;;;5052603;28;20059;-70
2022/10/13 05:07:31;;;;;;;28.33;17.92;;;10.00;99.90;;;;;;5055690;28;20068;-70
2022/10/13 05:09:56;;;;;;;30.75;17.88;;;10.00;99.90;;;;;;5057250;28;20056;-70
2022/10/13 05:12:22;;;;;;;29.80;17.90;;;10.00;99.90;;;;;;5036956;28;20485;-70
2022/10/13 05:14:48;;;;;;;30.10;18.47;;;10.00;99.90;;;;;;5039454;28;20040;-70
2022/10/13 05:17:14;;;;;;;27.87;17.27;;;10.00;99.90;;;;;;5056113;28;20581;-70
2022/10/13 05:19:40;;;;;;;30.70;18.60;;;10.10;99.90;;;;;;5056961;28;20045;-70
2022/10/13 05:22:05;;;;;;;32.80;17.77;;;10.10;99.90;;;;;;5056882;28;20837;-70
2022/10/13 05:24:37;;;;;;;32.50;18.03;;;10.10;99.90;;;;;;5033142;28;20049;-70
2022/10/13 05:27:10;;;;;;;35.90;19.40;;;10.10;99.90;;;;;;5044562;28;20544;-70
2022/10/13 05:29:36;;;;;;;34.67;19.65;;;10.10;99.90;;;;;;5047879;28;20511;-70
2022/10/13 05:32:02;;;;;;;31.70;19.25;;;10.10;99.90;;;;;;5050220;28;20044;-70
2022/10/13 05:34:28;;;;;;;32.87;19.30;;;10.10;99.90;;;;;;5058687;28;20072;-69
2022/10/13 05:36:54;;;;;;;28.20;19.20;;;10.10;99.90;;;;;;5062256;28;20411;-70
2022/10/13 05:39:19;;;;;;;30.10;20.13;;;10.10;99.90;;;;;;5041081;28;20049;-70
2022/10/13 05:41:45;;;;;;;27.63;18.33;;;10.20;99.90;;;;;;5040446;28;20512;-70
2022/10/13 05:44:11;;;;;;;33.43;19.70;;;10.20;99.90;;;;;;5058032;28;20127;-70
2022/10/13 05:46:36;;;;;;;34.50;19.13;;;10.20;99.90;;;;;;5060310;28;20044;-69
2022/10/13 05:49:03;;;;;;;32.47;20.97;;;10.30;99.90;;;;;;5066735;28;20040;-69
2022/10/13 05:51:38;;;;;;;32.90;20.38;;;10.20;99.90;;;;;;5032691;28;20433;-70
2022/10/13 05:54:09;;;;;;;32.47;19.50;;;10.20;99.90;;;;;;5060605;28;20123;-70
2022/10/13 05:56:40;;;;;;;34.40;20.25;;;10.20;99.90;;;;;;5053899;28;20072;-69
2022/10/13 05:59:08;;;;;;;34.75;20.83;;;10.20;99.90;;;;;;5041383;28;20147;-69
2022/10/13 06:01:38;;;;;;;36.47;20.05;;;10.20;99.90;;;;;;5066418;28;20048;-70
2022/10/13 06:04:11;;;;;;;35.60;20.60;;;10.30;99.90;;;;;;5048386;28;20051;-69
2022/10/13 06:06:37;;;;;;;34.72;20.35;;;10.30;99.90;;;;;;5066117;28;20290;-69
2022/10/13 06:09:03;;;;;;;31.77;20.43;;;10.30;99.90;;;;;;5065971;28;20048;-69
2022/10/13 06:11:28;;;;;;;34.17;20.80;;;10.30;99.90;;;;;;5041882;28;20382;-69
2022/10/13 06:13:54;;;;;;;33.60;20.73;;;10.30;99.90;;;;;;5064820;28;20160;-70
2022/10/13 06:16:20;;;;;;;39.03;21.13;;;10.30;99.90;;;;;;5052092;28;20044;-70
2022/10/13 06:18:45;;;;;;;39.80;20.80;;;10.40;99.90;;;;;;5061820;28;20045;-69
2022/10/13 06:21:12;;;;;;;40.23;21.83;;;10.40;99.90;;;;;;5043953;28;20071;-69
2022/10/13 06:23:38;;;;;;;34.67;20.90;;;10.40;99.90;;;;;;5058116;28;20045;-69
2022/10/13 06:26:06;;;;;;;32.90;20.80;;;10.40;99.90;;;;;;5053254;28;20720;-69
2022/10/13 06:28:32;;;;;;;38.07;20.47;;;10.50;99.90;;;;;;5058741;28;20279;-70
2022/10/13 06:30:57;;;;;;;33.33;20.37;;;10.50;99.90;;;;;;5054670;28;20287;-69
2022/10/13 06:33:24;;;;;;;32.43;19.97;;;10.50;99.90;;;;;;5039048;28;20496;-69
2022/10/13 06:35:51;;;;;;;34.50;19.98;;;10.60;99.90;;;;;;5046051;28;20086;-70
2022/10/13 06:38:17;;;;;;;32.53;19.77;;;10.60;99.90;;;;;;5058957;28;20193;-69
2022/10/13 06:40:42;;;;;;;35.33;21.03;;;10.60;99.90;;;;;;5062123;28;20509;-69
2022/10/13 06:43:09;;;;;;;35.67;20.90;;;10.60;99.90;;;;;;5058602;28;20302;-70
2022/10/13 06:45:35;;;;;;;35.97;21.83;;;10.70;99.90;;;;;;5037795;28;20043;-71
2022/10/13 06:48:04;;;;;;;37.40;21.80;;;10.70;99.90;;;;;;5051528;28;20289;-70
2022/10/13 06:50:31;;;;;;;34.07;21.60;;;10.80;99.90;;;;;;5038121;28;20041;-73
2022/10/13 06:52:57;;;;;;;35.73;21.13;;;10.80;99.90;;;;;;5056756;28;20504;-71
2022/10/13 06:55:22;;;;;;;37.07;21.87;;;10.80;99.90;;;;;;5058341;28;20286;-70
2022/10/13 06:57:48;;;;;;;39.23;20.87;;;10.90;99.90;;;;;;5041816;28;20751;-71
2022/10/13 07:00:15;;;;;;;37.93;22.40;;;11.00;99.90;;;;;;5058221;28;20045;-71
2022/10/13 07:02:41;;;;;;;32.23;21.37;;;11.10;99.90;;;;;;5031317;28;20045;-72
2022/10/13 07:05:08;;;;;;;34.33;21.80;;;11.10;99.90;;;;;;5053644;28;20695;-71
2022/10/13 07:07:34;;;;;;;38.00;22.10;;;11.20;99.90;;;;;;5042666;28;20051;-71
2022/10/13 07:10:06;;;;;;;35.93;23.03;;;11.30;99.90;;;;;;5056900;28;20952;-71
2022/10/13 07:12:31;;;;;;;35.23;21.83;;;11.40;99.90;;;;;;5052132;28;20294;-71
2022/10/13 07:14:57;;;;;;;36.03;21.87;;;11.50;99.90;;;;;;5058979;28;20040;-70
2022/10/13 07:17:23;;;;;;;41.97;21.60;;;11.50;99.90;;;;;;5055250;28;20551;-71
2022/10/13 07:19:49;;;;;;;37.57;22.07;;;11.60;99.90;;;;;;5054806;28;20699;-71
2022/10/13 07:22:15;;;;;;;35.87;21.17;;;11.60;99.90;;;;;;5051937;28;20044;-71
2022/10/13 07:24:46;;;;;;;38.90;21.97;;;11.60;99.90;;;;;;5052761;28;20366;-71
2022/10/13 07:27:12;;;;;;;35.97;21.20;;;11.70;99.90;;;;;;5058034;28;20763;-72
2022/10/13 07:29:38;;;;;;;34.87;22.30;;;11.70;99.90;;;;;;5056306;28;20091;-72
2022/10/13 07:32:04;;;;;;;33.93;20.87;;;11.70;99.90;;;;;;5052279;28;20114;-71
2022/10/13 07:34:30;;;;;;;33.67;21.80;;;11.80;99.90;;;;;;5056297;28;20051;-70
2022/10/13 07:36:56;;;;;;;34.23;21.97;;;11.80;99.90;;;;;;5038336;28;20287;-70
2022/10/13 07:39:21;;;;;;;31.37;20.17;;;11.80;99.90;;;;;;5040372;28;20104;-71
2022/10/13 07:41:47;;;;;;;28.80;19.93;;;11.80;99.90;;;;;;5049964;28;20423;-72
2022/10/13 07:44:13;;;;;;;37.83;22.37;;;11.90;99.90;;;;;;5060718;28;20044;-70
2022/10/13 07:46:39;;;;;;;36.70;21.83;;;11.90;99.90;;;;;;5049065;28;20339;-71
2022/10/13 07:49:08;;;;;;;30.43;20.17;;;11.90;99.90;;;;;;5046844;28;20048;-72
2022/10/13 07:51:33;;;;;;;34.83;20.10;;;12.00;99.90;;;;;;5036825;28;20299;-71
2022/10/13 07:53:59;;;;;;;33.50;20.00;;;12.00;99.90;;;;;;5053633;28;20728;-70
2022/10/13 07:56:25;;;;;;;37.47;22.07;;;12.00;99.90;;;;;;5038452;28;20084;-71
2022/10/13 07:58:51;;;;;;;35.70;21.17;;;12.10;99.90;;;;;;5038836;28;20104;-72
2022/10/13 08:01:20;;;;;;;36.73;22.57;;;12.20;99.90;;;;;;5053898;28;20063;-70
2022/10/13 08:03:46;;;;;;;42.13;23.93;;;12.20;99.90;;;;;;5042797;28;20299;-71
2022/10/13 08:06:13;;;;;;;34.60;21.60;;;12.30;99.90;;;;;;5045624;28;20947;-71
2022/10/13 08:08:39;;;;;;;39.23;23.23;;;12.30;99.90;;;;;;5048045;28;20044;-71
2022/10/13 08:11:12;;;;;;;39.00;22.63;;;12.40;99.90;;;;;;5037959;28;20283;-70
2022/10/13 08:13:38;;;;;;;38.30;21.90;;;12.40;99.90;;;;;;5062432;28;20295;-71
2022/10/13 08:16:05;;;;;;;42.23;22.57;;;12.50;99.90;;;;;;5051185;28;20344;-71
2022/10/13 08:18:31;;;;;;;38.47;22.13;;;12.50;99.90;;;;;;5037839;28;20045;-71
2022/10/13 08:21:00;;;;;;;33.43;21.73;;;12.60;99.90;;;;;;5038700;28;20703;-70
2022/10/13 08:23:26;;;;;;;37.83;22.63;;;12.60;99.90;;;;;;5064920;28;20302;-71
2022/10/13 08:25:52;;;;;;;39.27;21.83;;;12.60;99.90;;;;;;5050669;28;20294;-71
2022/10/13 08:28:27;;;;;;;37.40;22.70;;;12.70;99.90;;;;;;5063892;28;20888;-71
2022/10/13 08:30:56;;;;;;;33.20;21.33;;;12.70;99.90;;;;;;5040333;28;20036;-71
2022/10/13 08:33:30;;;;;;;37.50;22.13;;;12.80;99.90;;;;;;5071066;28;20074;-71
2022/10/13 08:35:56;;;;;;;33.10;21.73;;;12.80;99.90;;;;;;5031126;28;20287;-72
2022/10/13 08:38:22;;;;;;;34.57;20.90;;;12.90;99.90;;;;;;5033024;28;20504;-71
2022/10/13 08:40:49;;;;;;;40.27;21.77;;;13.00;99.90;;;;;;5055357;28;20086;-72
2022/10/13 08:43:19;;;;;;;33.33;19.90;;;13.10;99.90;;;;;;5034890;28;20918;-71
2022/10/13 08:45:47;;;;;;;34.83;20.67;;;13.20;99.90;;;;;;5049670;28;20364;-70
2022/10/13 08:48:23;;;;;;;30.33;19.83;;;13.30;99.90;;;;;;5060470;28;20274;-71
2022/10/13 08:50:52;;;;;;;27.63;19.57;;;13.40;99.90;;;;;;5057110;28;20295;-71
2022/10/13 08:53:36;;;;;;;29.70;19.93;;;13.40;99.90;;;;;;5060027;28;20341;-71
2022/10/13 08:56:26;;;;;;;30.30;19.20;;;13.40;99.90;;;;;;5063342;28;20323;-70
2022/10/13 08:58:55;;;;;;;29.20;20.47;;;13.50;99.90;;;;;;5041624;28;20428;-69
2022/10/13 09:01:30;;;;;;;29.20;18.97;;;13.50;99.90;;;;;;5045876;28;20289;-69
2022/10/13 09:03:59;;;;;;;30.77;19.50;;;13.60;99.90;;;;;;5050708;28;20294;-69
2022/10/13 09:06:32;;;;;;;32.10;19.87;;;13.60;99.90;;;;;;5053990;28;20503;-69
2022/10/13 09:09:04;;;;;;;30.73;19.53;;;13.60;99.90;;;;;;5045245;28;20805;-69
2022/10/13 09:11:36;;;;;;;28.50;19.13;;;13.70;99.90;;;;;;5061367;28;20679;-69
2022/10/13 09:14:10;;;;;;;32.13;19.80;;;13.70;99.90;;;;;;5067365;28;20316;-69
2022/10/13 09:16:40;;;;;;;28.30;19.43;;;13.70;99.90;;;;;;5034361;28;20370;-69
2022/10/13 09:19:21;;;;;;;26.70;18.57;;;13.60;99.90;;;;;;5059686;28;20314;-69
2022/10/13 09:21:49;;;;;;;30.40;19.87;;;13.60;99.90;;;;;;5048032;28;20279;-70
2022/10/13 09:24:18;;;;;;;30.30;19.33;;;13.60;99.90;;;;;;5068817;28;20816;-69
2022/10/13 09:26:45;;;;;;;30.43;18.37;;;13.60;99.90;;;;;;5051013;28;20279;-69
2022/10/13 09:29:20;;;;;;;30.00;18.17;;;13.50;99.90;;;;;;5050375;28;20666;-69
2022/10/13 09:31:46;;;;;;;30.20;19.70;;;13.60;99.90;;;;;;5056086;28;20329;-69
2022/10/13 09:34:17;;;;;;;31.83;18.83;;;13.60;99.90;;;;;;5043388;28;20048;-69
2022/10/13 09:37:04;;;;;;;30.57;18.67;;;13.60;99.90;;;;;;5050578;28;20287;-70
2022/10/13 09:39:31;;;;;;;31.57;19.07;;;13.60;99.90;;;;;;5063057;28;20313;-70
2022/10/13 09:42:24;;;;;;;34.47;20.10;;;13.60;99.90;;;;;;5057948;28;20324;-70
2022/10/13 09:44:59;;;;;;;29.70;18.37;;;13.70;99.90;;;;;;5052761;28;20830;-70
2022/10/13 09:47:27;;;;;;;32.20;18.73;;;13.70;99.90;;;;;;5062517;28;20270;-70
2022/10/13 09:50:16;;;;;;;29.40;20.53;;;13.70;99.90;;;;;;5058818;28;20036;-70
2022/10/13 09:52:43;;;;;;;29.47;19.90;;;13.70;99.90;;;;;;5062268;28;20848;-70
2022/10/13 09:55:30;;;;;;;29.20;20.30;;;13.80;99.90;;;;;;5058127;28;20286;-70
2022/10/13 09:58:03;;;;;;;33.43;20.80;;;13.80;99.90;;;;;;5038506;28;20839;-70
2022/10/13 10:00:30;;;;;;;28.00;19.50;;;13.80;99.90;;;;;;5055610;28;20290;-70
2022/10/13 10:03:21;;;;;;;34.87;21.23;;;13.90;99.90;;;;;;5050049;28;20840;-70
2022/10/13 10:06:01;;;;;;;29.97;19.40;;;14.00;99.90;;;;;;5054788;28;20314;-70
2022/10/13 10:08:40;;;;;;;30.53;19.87;;;14.00;99.90;;;;;;5060879;28;20316;-70
2022/10/13 10:11:12;;;;;;;32.17;20.40;;;14.00;99.90;;;;;;5057040;28;20394;-71
2022/10/13 10:13:38;;;;;;;30.03;19.83;;;14.10;99.90;;;;;;5053044;28;20846;-72
2022/10/13 10:16:14;;;;;;;27.90;19.93;;;14.20;99.90;;;;;;5050233;28;20282;-71
2022/10/13 10:18:52;;;;;;;29.20;19.07;;;14.20;99.90;;;;;;5059559;28;20128;-72
2022/10/13 10:21:25;;;;;;;29.93;19.87;;;14.20;99.90;;;;;;5060815;28;20473;-72
2022/10/13 10:24:19;;;;;;;28.27;18.33;;;14.30;99.90;;;;;;5052610;28;20298;-72
2022/10/13 10:27:04;;;;;;;27.00;18.30;;;14.30;99.90;;;;;;5049871;28;20822;-72
2022/10/13 10:29:49;;;;;;;29.35;18.60;;;14.40;99.90;;;;;;5040639;28;20356;-72
2022/10/13 10:32:33;;;;;;;26.73;18.23;;;14.40;99.90;;;;;;5038756;28;20029;-72
2022/10/13 10:35:21;;;;;;;28.80;19.33;;;14.40;99.90;;;;;;5040308;28;20086;-71
2022/10/13 10:38:09;;;;;;;24.90;16.47;;;14.50;99.90;;;;;;5046446;28;20332;-72
2022/10/13 10:41:02;;;;;;;25.07;17.10;;;14.50;99.90;;;;;;5066773;28;20278;-71
2022/10/13 10:43:57;;;;;;;26.40;18.27;;;14.50;99.90;;;;;;5053644;28;20397;-72
2022/10/13 10:46:27;;;;;;;28.90;17.38;;;14.60;99.90;;;;;;5046897;28;20370;-72
2022/10/13 10:49:01;;;;;;;24.47;14.97;;;14.60;99.90;;;;;;5057389;28;20078;-72
2022/10/13 10:51:35;;;;;;;23.20;14.87;;;14.60;99.90;;;;;;5042456;28;20798;-74
2022/10/13 10:54:37;;;;;;;20.85;13.40;;;14.60;99.90;;;;;;5058301;28;20733;-72
2022/10/13 10:57:34;;;;;;;19.80;12.73;;;14.70;99.90;;;;;;5053454;28;20052;-72
2022/10/13 11:00:04;;;;;;;18.23;11.33;;;14.80;99.90;;;;;;5064007;28;20700;-72
2022/10/13 11:03:02;;;;;;;16.30;11.87;;;14.90;99.90;;;;;;5040175;28;20373;-72
2022/10/13 11:05:56;;;;;;;19.87;10.70;;;14.90;99.90;;;;;;5039277;28;20343;-72
2022/10/13 11:08:40;;;;;;;15.63;9.93;;;15.00;99.90;;;;;;5039477;28;20286;-73
2022/10/13 11:11:25;;;;;;;16.13;10.33;;;15.00;99.90;;;;;;5057590;28;20288;-73
2022/10/13 11:14:05;;;;;;;13.77;9.57;;;15.00;99.90;;;;;;5060521;28;20980;-74
2022/10/13 11:16:58;;;;;;;17.47;10.77;;;15.10;99.90;;;;;;5059861;28;20266;-72
2022/10/13 11:19:35;;;;;;;13.37;9.40;;;15.10;99.90;;;;;;5053285;28;20335;-72
2022/10/13 11:22:01;;;;;;;12.17;7.60;;;15.20;99.90;;;;;;5067465;28;20306;-73
2022/10/13 11:24:45;;;;;;;16.10;8.77;;;15.10;99.90;;;;;;5058256;28;20897;-73
2022/10/13 11:27:14;;;;;;;11.80;8.20;;;15.10;99.90;;;;;;5053952;28;20162;-72
2022/10/13 11:29:59;;;;;;;13.00;8.70;;;15.10;99.90;;;;;;5055764;28;20662;-72
2022/10/13 11:35:03;;;;;;;12.50;8.13;;;15.20;99.90;;;;;;5052425;28;20276;-71
2022/10/13 11:37:50;;;;;;;10.77;8.00;;;15.30;99.90;;;;;;5070075;28;20278;-72
2022/10/13 11:40:23;;;;;;;10.97;7.40;;;15.30;99.90;;;;;;5050892;28;20358;-72
2022/10/13 11:42:56;;;;;;;12.07;8.37;;;15.40;99.90;;;;;;5049164;28;20795;-71
2022/10/13 11:45:28;;;;;;;15.27;8.27;;;15.50;99.90;;;;;;5054788;28;20294;-72
2022/10/13 11:48:21;;;;;;;12.93;7.10;;;15.50;99.90;;;;;;5040001;28;20297;-72
2022/10/13 11:51:10;;;;;;;16.27;7.27;;;15.60;99.90;;;;;;5052892;28;20667;-73
2022/10/13 11:54:15;;;;;;;9.13;6.40;;;15.60;99.90;;;;;;5056029;28;20852;-72
2022/10/13 11:56:46;;;;;;;8.80;5.20;;;15.60;99.90;;;;;;5059761;28;20284;-72
2022/10/13 11:59:28;;;;;;;9.47;3.87;;;15.60;99.90;;;;;;5059070;28;20295;-71
2022/10/13 12:02:04;;;;;;;6.60;2.10;;;15.60;99.90;;;;;;5052264;28;20301;-72
2022/10/13 12:04:30;;;;;;;6.63;1.80;;;15.50;98.50;;;;;;5055536;28;20302;-71
2022/10/13 12:07:02;;;;;;;6.00;1.63;;;15.40;98.20;;;;;;5052924;28;20865;-71
2022/10/13 12:09:30;;;;;;;7.00;2.27;;;15.40;98.60;;;;;;5055596;28;20405;-71
2022/10/13 12:12:17;;;;;;;5.77;2.13;;;15.30;99.00;;;;;;5052168;28;20783;-72
2022/10/13 12:14:49;;;;;;;6.47;1.60;;;15.40;99.70;;;;;;5045820;28;20288;-71
2022/10/13 12:17:26;;;;;;;6.47;1.67;;;15.40;99.20;;;;;;5052203;28;20290;-71
2022/10/13 12:19:54;;;;;;;5.43;1.50;;;15.40;99.70;;;;;;5047500;28;20647;-71
2022/10/13 12:22:21;;;;;;;7.73;2.33;;;15.40;98.40;;;;;;5053457;28;20350;-71
2022/10/13 12:25:05;;;;;;;7.20;1.67;;;15.30;98.20;;;;;;5053324;28;20422;-71
2022/10/13 12:27:40;;;;;;;5.22;1.63;;;15.40;98.80;;;;;;5060232;28;20614;-71
2022/10/13 12:30:21;;;;;;;5.88;2.08;;;15.40;98.90;;;;;;5042775;28;20037;-72
2022/10/13 12:32:52;;;;;;;5.90;1.73;;;15.50;98.60;;;;;;5059287;28;20081;-70
2022/10/13 12:35:22;;;;;;;5.47;1.87;;;15.50;98.20;;;;;;5028061;28;20710;-70
2022/10/13 12:37:48;;;;;;;4.43;1.70;;;15.60;98.50;;;;;;5032656;28;20286;-70
2022/10/13 12:40:18;;;;;;;6.87;1.83;;;15.70;98.60;;;;;;5057026;28;20772;-70
2022/10/13 12:42:45;;;;;;;7.40;1.80;;;15.80;97.70;;;;;;5051917;28;20287;-70
2022/10/13 12:45:23;;;;;;;8.13;1.80;;;15.90;97.80;;;;;;5046749;28;20408;-70
2022/10/13 12:47:53;;;;;;;6.60;2.00;;;16.00;97.30;;;;;;5047034;28;20845;-70
2022/10/13 12:50:28;;;;;;;6.20;1.70;;;16.10;97.50;;;;;;5045949;28;20306;-70
2022/10/13 12:52:54;;;;;;;5.95;2.15;;;16.20;96.20;;;;;;5050070;28;20347;-70